Time;durP1;ratioP1;P1;durP2;ratioP2;P2;SDS_P1;SDS_P2;PMS_P1;PMS_P2;Temp;Humidity;BMP_temperature;BMP_pressure;BME280_temperature;BME280_humidity;BME280_pressure;Samples;Min_cycle;Max_cycle;Signal;HPM_P1;HPM_P2
2023/05/06 00:02:24;;;;;;;48.38;26.80;;;;;;;;;;5036332;28;20413;-60
2023/05/06 00:04:51;;;;;;;48.83;26.35;;;;;;;;;;5043090;28;20414;-59
2023/05/06 00:07:18;;;;;;;55.38;28.55;;;;;;;;;;5040339;28;20423;-59
2023/05/06 00:09:45;;;;;;;55.22;28.73;;;;;;;;;;5044394;28;20894;-58
2023/05/06 00:12:12;;;;;;;57.20;29.38;;;;;;;;;;5043781;28;20410;-59
2023/05/06 00:14:39;;;;;;;55.63;27.40;;;;;;;;;;5041414;28;20415;-60
2023/05/06 00:17:08;;;;;;;50.78;26.92;;;;;;;;;;5040668;28;20411;-59
2023/05/06 00:19:35;;;;;;;45.15;26.90;;;;;;;;;;5031717;28;20415;-58
2023/05/06 00:22:02;;;;;;;45.55;26.30;;;;;;;;;;5039147;28;20419;-58
2023/05/06 00:24:29;;;;;;;50.13;26.95;;;;;;;;;;5053013;28;20419;-59
2023/05/06 00:26:57;;;;;;;55.60;28.88;;;;;;;;;;5043213;28;20467;-58
2023/05/06 00:29:24;;;;;;;44.53;25.77;;;;;;;;;;5040278;28;20431;-59
2023/05/06 00:31:51;;;;;;;88.88;70.82;;;;;;;;;;5042467;28;20413;-58
2023/05/06 00:34:19;;;;;;;68.88;51.58;;;;;;;;;;5041816;28;20421;-59
2023/05/06 00:36:46;;;;;;;59.42;41.47;;;;;;;;;;5038475;28;20452;-59
2023/05/06 00:39:13;;;;;;;54.05;34.47;;;;;;;;;;5041201;28;20481;-59
2023/05/06 00:41:40;;;;;;;50.00;31.77;;;;;;;;;;5040572;28;20423;-59
2023/05/06 00:44:07;;;;;;;47.73;29.50;;;;;;;;;;5041658;28;20950;-59
2023/05/06 00:46:34;;;;;;;50.13;28.63;;;;;;;;;;5042149;28;20425;-60
2023/05/06 00:49:01;;;;;;;51.30;28.63;;;;;;;;;;5039706;28;20921;-60
2023/05/06 00:51:30;;;;;;;47.47;27.77;;;;;;;;;;5046232;28;20414;-58
2023/05/06 00:53:57;;;;;;;45.45;26.35;;;;;;;;;;5053427;28;20416;-58
2023/05/06 00:56:24;;;;;;;51.75;29.17;;;;;;;;;;5041793;28;20823;-59
2023/05/06 00:58:51;;;;;;;54.33;29.70;;;;;;;;;;5042553;28;20409;-59
2023/05/06 01:01:18;;;;;;;55.50;30.27;;;;;;;;;;5039819;28;20456;-60
2023/05/06 01:03:45;;;;;;;53.22;29.23;;;;;;;;;;5040215;28;20419;-60
2023/05/06 01:06:15;;;;;;;52.70;28.58;;;;;;;;;;5041912;28;20437;-59
2023/05/06 01:08:47;;;;;;;52.58;29.02;;;;;;;;;;5041620;28;20482;-59
2023/05/06 01:11:17;;;;;;;50.05;28.08;;;;;;;;;;5038721;28;20417;-60
2023/05/06 01:13:47;;;;;;;51.97;28.83;;;;;;;;;;5041414;28;20462;-59
2023/05/06 01:16:16;;;;;;;67.80;31.85;;;;;;;;;;5039360;28;20407;-59
2023/05/06 01:18:43;;;;;;;74.13;32.95;;;;;;;;;;5039755;28;20445;-60
2023/05/06 01:21:12;;;;;;;71.88;33.60;;;;;;;;;;5042139;28;20475;-60
2023/05/06 01:23:54;;;;;;;79.45;33.42;;;;;;;;;;5051976;28;20422;-59
2023/05/06 01:26:21;;;;;;;71.93;33.53;;;;;;;;;;5040204;28;20437;-59
2023/05/06 01:28:48;;;;;;;86.87;34.97;;;;;;;;;;5039050;28;20454;-59
2023/05/06 01:31:18;;;;;;;113.15;38.97;;;;;;;;;;5040919;28;20463;-58
2023/05/06 01:33:48;;;;;;;137.40;39.22;;;;;;;;;;5044830;28;20896;-58
2023/05/06 01:36:19;;;;;;;122.65;37.35;;;;;;;;;;5040771;28;20443;-58
2023/05/06 01:38:48;;;;;;;97.30;35.53;;;;;;;;;;5040731;28;20430;-58
2023/05/06 01:41:17;;;;;;;72.85;31.65;;;;;;;;;;5043254;28;20469;-58
2023/05/06 01:43:45;;;;;;;80.85;34.20;;;;;;;;;;5039100;28;20437;-59
2023/05/06 01:46:16;;;;;;;74.70;33.45;;;;;;;;;;5043464;28;20409;-59
2023/05/06 01:48:43;;;;;;;77.65;32.30;;;;;;;;;;5045857;28;20459;-57
2023/05/06 01:51:10;;;;;;;65.30;31.92;;;;;;;;;;5043141;28;20417;-59
2023/05/06 01:53:37;;;;;;;68.93;32.47;;;;;;;;;;5052042;28;20413;-60
2023/05/06 01:56:04;;;;;;;55.50;28.55;;;;;;;;;;5046035;28;20422;-60
2023/05/06 01:58:33;;;;;;;54.40;28.90;;;;;;;;;;5044281;28;20479;-59
2023/05/06 02:01:00;;;;;;;77.82;31.42;;;;;;;;;;5045467;28;20471;-59
2023/05/06 02:03:27;;;;;;;86.47;33.10;;;;;;;;;;5044105;28;20414;-59
2023/05/06 02:05:54;;;;;;;70.97;31.63;;;;;;;;;;5042797;28;20470;-58
2023/05/06 02:08:21;;;;;;;74.82;33.25;;;;;;;;;;5043218;28;20437;-58
2023/05/06 02:10:49;;;;;;;74.07;31.83;;;;;;;;;;5046660;28;20503;-58
2023/05/06 02:13:18;;;;;;;72.70;32.15;;;;;;;;;;5042709;28;20433;-59
2023/05/06 02:15:46;;;;;;;74.25;31.33;;;;;;;;;;5045186;28;20413;-60
2023/05/06 02:18:13;;;;;;;75.85;33.28;;;;;;;;;;5045033;28;20463;-59
2023/05/06 02:20:40;;;;;;;75.13;32.80;;;;;;;;;;5043389;28;20895;-60
2023/05/06 02:23:07;;;;;;;91.90;35.70;;;;;;;;;;5046042;28;20782;-59
2023/05/06 02:25:34;;;;;;;106.32;38.38;;;;;;;;;;5051857;28;20417;-59
2023/05/06 02:28:01;;;;;;;127.53;41.97;;;;;;;;;;5043937;28;20425;-60
2023/05/06 02:30:29;;;;;;;129.07;42.75;;;;;;;;;;5042456;28;20407;-60
2023/05/06 02:32:57;;;;;;;126.45;40.88;;;;;;;;;;5043641;28;20471;-60
2023/05/06 02:35:25;;;;;;;130.25;40.83;;;;;;;;;;5041809;28;20411;-57
2023/05/06 02:37:52;;;;;;;111.03;39.25;;;;;;;;;;5044091;28;20413;-58
2023/05/06 02:40:19;;;;;;;119.70;39.88;;;;;;;;;;5048407;28;20425;-60
2023/05/06 02:42:45;;;;;;;107.40;37.33;;;;;;;;;;5042073;28;20473;-58
2023/05/06 02:45:12;;;;;;;118.50;40.20;;;;;;;;;;5043352;28;20413;-58
2023/05/06 02:47:39;;;;;;;113.57;37.92;;;;;;;;;;5044162;28;20471;-60
2023/05/06 02:50:08;;;;;;;103.18;38.25;;;;;;;;;;5042807;28;20411;-60
2023/05/06 02:52:35;;;;;;;91.10;36.08;;;;;;;;;;5049336;28;20412;-59
2023/05/06 02:55:02;;;;;;;90.65;36.15;;;;;;;;;;5050919;28;20425;-59
2023/05/06 02:57:29;;;;;;;88.38;35.00;;;;;;;;;;5042133;28;20481;-59
2023/05/06 02:59:56;;;;;;;83.97;35.00;;;;;;;;;;5044294;28;20485;-60
2023/05/06 03:02:23;;;;;;;80.28;32.38;;;;;;;;;;5042886;28;20411;-59
2023/05/06 03:04:50;;;;;;;76.22;32.78;;;;;;;;;;5041966;28;20477;-59
2023/05/06 03:07:20;;;;;;;73.17;32.23;;;;;;;;;;5042800;28;21311;-60
2023/05/06 03:09:47;;;;;;;69.75;31.20;;;;;;;;;;5043926;28;20413;-60
2023/05/06 03:12:15;;;;;;;68.50;29.42;;;;;;;;;;5041719;28;20411;-59
2023/05/06 03:14:42;;;;;;;71.75;30.92;;;;;;;;;;5042219;28;20419;-60
2023/05/06 03:17:09;;;;;;;82.22;33.30;;;;;;;;;;5043683;28;20467;-60
2023/05/06 03:19:36;;;;;;;94.15;32.50;;;;;;;;;;5042486;28;20415;-58
2023/05/06 03:22:03;;;;;;;85.93;33.08;;;;;;;;;;5051623;28;20463;-60
2023/05/06 03:24:31;;;;;;;80.85;32.35;;;;;;;;;;5050841;28;20890;-60
2023/05/06 03:26:58;;;;;;;79.57;31.60;;;;;;;;;;5044507;28;20784;-60
2023/05/06 03:29:25;;;;;;;80.15;32.30;;;;;;;;;;5041574;28;20758;-60
2023/05/06 03:31:52;;;;;;;87.22;33.75;;;;;;;;;;5042226;28;20413;-59
2023/05/06 03:34:19;;;;;;;83.40;31.88;;;;;;;;;;5043784;28;20463;-59
2023/05/06 03:36:46;;;;;;;80.50;30.70;;;;;;;;;;5041873;28;20594;-60
2023/05/06 03:39:13;;;;;;;124.50;34.75;;;;;;;;;;5041537;28;20415;-59
2023/05/06 03:41:42;;;;;;;123.97;36.45;;;;;;;;;;5044333;28;20423;-59
2023/05/06 03:44:08;;;;;;;128.80;36.05;;;;;;;;;;5040013;28;20818;-58
2023/05/06 03:46:37;;;;;;;132.48;37.45;;;;;;;;;;5047123;28;20778;-60
2023/05/06 03:49:04;;;;;;;101.63;33.75;;;;;;;;;;5043478;28;20461;-59
2023/05/06 03:51:31;;;;;;;89.70;32.30;;;;;;;;;;5048205;28;20856;-59
2023/05/06 03:53:58;;;;;;;88.38;31.77;;;;;;;;;;5048409;28;20953;-58
2023/05/06 03:56:25;;;;;;;81.63;30.13;;;;;;;;;;5041896;28;20474;-59
2023/05/06 03:58:54;;;;;;;93.23;32.00;;;;;;;;;;5040909;28;20410;-58
2023/05/06 04:01:21;;;;;;;91.17;33.17;;;;;;;;;;5041757;28;20414;-57
2023/05/06 04:03:48;;;;;;;96.57;33.65;;;;;;;;;;5042871;28;20417;-57
2023/05/06 04:06:15;;;;;;;102.90;35.58;;;;;;;;;;5041240;28;20956;-59
2023/05/06 04:08:42;;;;;;;95.13;35.77;;;;;;;;;;5039490;28;20806;-58
2023/05/06 04:11:09;;;;;;;106.82;38.13;;;;;;;;;;5040277;28;20415;-58
2023/05/06 04:13:35;;;;;;;112.50;41.50;;;;;;;;;;5041202;28;20419;-58
2023/05/06 04:16:04;;;;;;;103.82;39.38;;;;;;;;;;5042686;28;20416;-57
2023/05/06 04:18:31;;;;;;;103.27;39.80;;;;;;;;;;5041814;28;20411;-59
2023/05/06 04:20:58;;;;;;;108.73;39.80;;;;;;;;;;5041124;28;20502;-59
2023/05/06 04:23:26;;;;;;;91.97;36.00;;;;;;;;;;5047419;28;20782;-60
2023/05/06 04:25:53;;;;;;;94.33;37.80;;;;;;;;;;5042938;28;20956;-59
2023/05/06 04:28:20;;;;;;;85.35;35.85;;;;;;;;;;5042450;28;21118;-60
2023/05/06 04:30:47;;;;;;;92.60;37.13;;;;;;;;;;5041558;28;20429;-60
2023/05/06 04:33:15;;;;;;;93.43;37.20;;;;;;;;;;5040228;28;20426;-60
2023/05/06 04:35:51;;;;;;;83.88;36.03;;;;;;;;;;5044020;28;20419;-59
2023/05/06 04:38:18;;;;;;;78.55;34.25;;;;;;;;;;5040012;28;20415;-59
2023/05/06 04:40:45;;;;;;;76.03;35.15;;;;;;;;;;5043345;28;20475;-59
2023/05/06 04:43:12;;;;;;;78.22;34.58;;;;;;;;;;5041363;28;20431;-57
2023/05/06 04:45:39;;;;;;;68.65;32.13;;;;;;;;;;5045343;28;20429;-59
2023/05/06 04:48:08;;;;;;;65.93;31.52;;;;;;;;;;5041450;28;20541;-58
2023/05/06 04:50:36;;;;;;;67.72;32.63;;;;;;;;;;5041109;28;20422;-59
2023/05/06 04:53:03;;;;;;;68.10;33.42;;;;;;;;;;5040365;28;20465;-59
2023/05/06 04:55:32;;;;;;;69.72;32.88;;;;;;;;;;5047941;28;20425;-59
2023/05/06 04:57:59;;;;;;;62.03;31.90;;;;;;;;;;5040907;28;20455;-58
2023/05/06 05:00:26;;;;;;;58.88;30.58;;;;;;;;;;5039360;28;20477;-58
2023/05/06 05:02:53;;;;;;;59.42;29.48;;;;;;;;;;5041090;28;20492;-59
2023/05/06 05:05:20;;;;;;;55.53;30.40;;;;;;;;;;5041886;28;20409;-58
2023/05/06 05:07:48;;;;;;;48.78;27.58;;;;;;;;;;5030619;28;20798;-58
2023/05/06 05:10:15;;;;;;;47.30;26.17;;;;;;;;;;5036068;28;20475;-57
2023/05/06 05:12:42;;;;;;;48.50;27.00;;;;;;;;;;5039640;28;20406;-60
2023/05/06 05:15:10;;;;;;;47.80;26.60;;;;;;;;;;5040842;28;20482;-59
2023/05/06 05:17:38;;;;;;;46.85;26.10;;;;;;;;;;5041552;28;20896;-59
2023/05/06 05:20:05;;;;;;;41.08;24.88;;;;;;;;;;5039023;28;20844;-60
2023/05/06 05:22:32;;;;;;;40.85;23.80;;;;;;;;;;5046353;28;20469;-59
2023/05/06 05:25:01;;;;;;;41.50;23.77;;;;;;;;;;5047668;28;20429;-58
2023/05/06 05:27:28;;;;;;;35.92;21.95;;;;;;;;;;5039665;28;20450;-59
2023/05/06 05:29:55;;;;;;;33.38;21.27;;;;;;;;;;5041539;28;20892;-60
2023/05/06 05:32:22;;;;;;;31.35;20.13;;;;;;;;;;5040345;28;20407;-60
2023/05/06 05:34:49;;;;;;;32.03;19.83;;;;;;;;;;5039623;28;20415;-59
2023/05/06 05:37:16;;;;;;;29.98;19.88;;;;;;;;;;5041037;28;20453;-60
2023/05/06 05:39:43;;;;;;;29.05;19.52;;;;;;;;;;5042792;28;20421;-59
2023/05/06 05:42:11;;;;;;;29.27;20.00;;;;;;;;;;5041962;28;20440;-59
2023/05/06 05:44:38;;;;;;;35.50;20.93;;;;;;;;;;5040421;28;20422;-60
2023/05/06 05:47:06;;;;;;;29.63;19.55;;;;;;;;;;5038751;28;20469;-60
2023/05/06 05:49:33;;;;;;;28.63;19.17;;;;;;;;;;5040662;28;20483;-60
2023/05/06 05:52:00;;;;;;;27.25;18.75;;;;;;;;;;5047890;28;20417;-60
2023/05/06 05:54:27;;;;;;;23.73;16.83;;;;;;;;;;5047824;28;20415;-59
2023/05/06 05:56:53;;;;;;;25.02;17.38;;;;;;;;;;5042283;28;20425;-60
2023/05/06 05:59:22;;;;;;;27.80;17.40;;;;;;;;;;5038782;28;20469;-60
2023/05/06 06:01:49;;;;;;;24.10;17.10;;;;;;;;;;5040781;28;20459;-59
2023/05/06 06:04:16;;;;;;;25.17;17.60;;;;;;;;;;5041210;28;20456;-59
2023/05/06 06:06:43;;;;;;;27.87;18.60;;;;;;;;;;5036941;28;20468;-59
2023/05/06 06:09:10;;;;;;;24.95;17.77;;;;;;;;;;5042518;28;20474;-60
2023/05/06 06:11:37;;;;;;;28.73;18.30;;;;;;;;;;5039278;28;20423;-59
2023/05/06 06:14:04;;;;;;;27.08;18.38;;;;;;;;;;5040173;28;20466;-59
2023/05/06 06:16:32;;;;;;;23.33;17.33;;;;;;;;;;5041004;28;20413;-59
2023/05/06 06:18:59;;;;;;;22.20;16.10;;;;;;;;;;5039392;28;20469;-60
2023/05/06 06:21:26;;;;;;;20.63;16.00;;;;;;;;;;5043581;28;20476;-59
2023/05/06 06:23:53;;;;;;;21.05;15.57;;;;;;;;;;5046902;28;20413;-59
2023/05/06 06:26:21;;;;;;;18.40;15.15;;;;;;;;;;5039064;28;20545;-58
2023/05/06 06:28:48;;;;;;;19.48;14.98;;;;;;;;;;5038546;28;20429;-57
2023/05/06 06:31:15;;;;;;;20.42;15.25;;;;;;;;;;5042130;28;20474;-59
2023/05/06 06:33:43;;;;;;;20.57;14.73;;;;;;;;;;5048564;28;20417;-59
2023/05/06 06:36:10;;;;;;;20.23;15.02;;;;;;;;;;5044799;28;20486;-58
2023/05/06 06:38:37;;;;;;;21.08;15.07;;;;;;;;;;5044520;28;20462;-57
2023/05/06 06:41:04;;;;;;;20.67;15.10;;;;;;;;;;5045454;28;20983;-59
2023/05/06 06:43:31;;;;;;;19.25;14.05;;;;;;;;;;5043576;28;20973;-59
2023/05/06 06:45:58;;;;;;;17.70;14.02;;;;;;;;;;5044648;28;20494;-58
2023/05/06 06:48:25;;;;;;;20.85;15.52;;;;;;;;;;5042823;28;20427;-59
2023/05/06 06:50:54;;;;;;;17.55;14.38;;;;;;;;;;5042687;28;20414;-59
2023/05/06 06:53:21;;;;;;;18.33;14.73;;;;;;;;;;5047964;28;20477;-59
2023/05/06 06:55:48;;;;;;;17.90;14.10;;;;;;;;;;5045746;28;20467;-60
2023/05/06 06:58:15;;;;;;;16.40;13.30;;;;;;;;;;5044005;28;20467;-59
2023/05/06 07:00:42;;;;;;;18.77;14.27;;;;;;;;;;5042568;28;20423;-60
2023/05/06 07:03:09;;;;;;;17.25;13.98;;;;;;;;;;5042353;28;20821;-60
2023/05/06 07:05:36;;;;;;;16.90;13.57;;;;;;;;;;5033549;28;20493;-60
2023/05/06 07:08:04;;;;;;;17.98;14.20;;;;;;;;;;5033210;28;20415;-60
2023/05/06 07:10:31;;;;;;;18.30;14.25;;;;;;;;;;5039462;28;20421;-60
2023/05/06 07:12:58;;;;;;;18.52;14.18;;;;;;;;;;5042565;28;20419;-60
2023/05/06 07:15:25;;;;;;;18.17;14.20;;;;;;;;;;5042257;28;20778;-59
2023/05/06 07:17:52;;;;;;;18.45;14.43;;;;;;;;;;5043759;28;20409;-59
2023/05/06 07:20:20;;;;;;;17.98;14.13;;;;;;;;;;5043782;28;20416;-60
2023/05/06 07:22:47;;;;;;;17.75;13.55;;;;;;;;;;5043048;28;20417;-58
2023/05/06 07:25:15;;;;;;;15.68;12.85;;;;;;;;;;5049842;28;20422;-59
2023/05/06 07:27:42;;;;;;;17.45;12.80;;;;;;;;;;5040981;28;20488;-57
2023/05/06 07:30:10;;;;;;;13.52;11.38;;;;;;;;;;5043289;28;20428;-58
2023/05/06 07:32:37;;;;;;;13.50;10.57;;;;;;;;;;5043831;28;20456;-58
2023/05/06 07:35:04;;;;;;;14.57;11.23;;;;;;;;;;5032574;28;20422;-58
2023/05/06 07:37:31;;;;;;;14.30;10.55;;;;;;;;;;5032370;28;20468;-58
2023/05/06 07:39:59;;;;;;;13.10;10.03;;;;;;;;;;5031114;28;20494;-61
2023/05/06 07:42:27;;;;;;;12.98;9.85;;;;;;;;;;5049414;28;20823;-60
2023/05/06 07:44:54;;;;;;;11.98;9.45;;;;;;;;;;5049667;28;20525;-60
2023/05/06 07:47:26;;;;;;;10.50;8.60;;;;;;;;;;5045812;28;20430;-60
2023/05/06 07:49:53;;;;;;;11.50;8.32;;;;;;;;;;5044478;28;20492;-60
2023/05/06 07:52:20;;;;;;;9.50;7.70;;;;;;;;;;5045383;28;20469;-60
2023/05/06 07:54:47;;;;;;;12.18;9.13;;;;;;;;;;5050704;28;20417;-61
2023/05/06 07:57:14;;;;;;;12.30;9.40;;;;;;;;;;5042757;28;20421;-60
2023/05/06 07:59:43;;;;;;;13.82;9.45;;;;;;;;;;5041669;28;20477;-62
2023/05/06 08:02:10;;;;;;;11.05;8.60;;;;;;;;;;5040176;28;20506;-61
2023/05/06 08:04:37;;;;;;;9.20;7.53;;;;;;;;;;5041914;28;20417;-62
2023/05/06 08:07:04;;;;;;;8.35;6.72;;;;;;;;;;5042478;28;20478;-62
2023/05/06 08:09:31;;;;;;;10.52;7.30;;;;;;;;;;5040660;28;20465;-61
2023/05/06 08:11:58;;;;;;;10.07;7.95;;;;;;;;;;5042834;28;20475;-61
2023/05/06 08:14:25;;;;;;;11.27;8.02;;;;;;;;;;5043371;28;20822;-62
2023/05/06 08:16:54;;;;;;;10.27;7.90;;;;;;;;;;5041059;28;20415;-61
2023/05/06 08:19:21;;;;;;;9.40;7.40;;;;;;;;;;5040253;28;20820;-61
2023/05/06 08:21:49;;;;;;;11.18;8.15;;;;;;;;;;5048254;28;21103;-62
2023/05/06 08:24:16;;;;;;;11.55;7.68;;;;;;;;;;5048114;28;20913;-61
2023/05/06 08:26:43;;;;;;;11.18;7.57;;;;;;;;;;5040970;28;20423;-63
2023/05/06 08:29:10;;;;;;;9.77;8.65;;;;;;;;;;5040563;28;20435;-63
2023/05/06 08:31:37;;;;;;;10.95;7.68;;;;;;;;;;5042090;28;20413;-61
2023/05/06 08:34:05;;;;;;;11.32;7.75;;;;;;;;;;5040481;28;20418;-60
2023/05/06 08:36:32;;;;;;;10.02;6.95;;;;;;;;;;5039523;28;20419;-61
2023/05/06 08:38:59;;;;;;;7.90;6.50;;;;;;;;;;5042001;28;20409;-60
2023/05/06 08:41:26;;;;;;;9.10;6.57;;;;;;;;;;5042541;28;20423;-60
2023/05/06 08:43:55;;;;;;;8.30;6.53;;;;;;;;;;5041903;28;20417;-61
2023/05/06 08:46:30;;;;;;;9.48;6.60;;;;;;;;;;5040630;28;20422;-59
2023/05/06 08:48:57;;;;;;;8.15;6.00;;;;;;;;;;5039987;28;20423;-59
2023/05/06 08:51:28;;;;;;;7.32;5.93;;;;;;;;;;5043443;28;20481;-57
2023/05/06 08:53:55;;;;;;;9.03;5.10;;;;;;;;;;5045461;28;20413;-58
2023/05/06 08:56:25;;;;;;;5.53;4.93;;;;;;;;;;5041868;28;20417;-58
2023/05/06 08:58:52;;;;;;;6.45;4.60;;;;;;;;;;5041746;28;20819;-60
2023/05/06 09:01:19;;;;;;;6.78;4.35;;;;;;;;;;5040374;28;20445;-59
2023/05/06 09:03:47;;;;;;;6.50;4.00;;;;;;;;;;5039256;28;20415;-60
2023/05/06 09:06:14;;;;;;;3.97;2.38;;;;;;;;;;5040798;28;20412;-59
2023/05/06 09:08:43;;;;;;;3.30;2.50;;;;;;;;;;5041675;28;20467;-60
2023/05/06 09:11:22;;;;;;;6.30;3.53;;;;;;;;;;5037882;28;20912;-60
2023/05/06 09:13:49;;;;;;;5.30;3.13;;;;;;;;;;5041104;28;20416;-60
2023/05/06 09:16:37;;;;;;;7.07;4.25;;;;;;;;;;5040540;28;20511;-60
2023/05/06 09:19:04;;;;;;;7.38;4.72;;;;;;;;;;5025536;28;20427;-60
2023/05/06 09:21:35;;;;;;;6.03;4.15;;;;;;;;;;5035068;28;20435;-60
2023/05/06 09:24:03;;;;;;;5.78;3.70;;;;;;;;;;5048310;28;20477;-59
2023/05/06 09:26:31;;;;;;;5.35;3.50;;;;;;;;;;5051361;28;20489;-59
2023/05/06 09:28:58;;;;;;;5.20;3.58;;;;;;;;;;5039676;28;20933;-59
2023/05/06 09:31:26;;;;;;;4.00;3.10;;;;;;;;;;5041185;28;20417;-59
2023/05/06 09:33:53;;;;;;;4.38;2.53;;;;;;;;;;5040037;28;20415;-59
2023/05/06 09:36:20;;;;;;;4.40;1.90;;;;;;;;;;5038721;28;20816;-60
2023/05/06 09:38:47;;;;;;;2.75;1.80;;;;;;;;;;5038829;28;20415;-60
2023/05/06 09:41:16;;;;;;;4.50;2.30;;;;;;;;;;5042734;28;20414;-59
2023/05/06 09:43:44;;;;;;;3.30;2.20;;;;;;;;;;5045155;28;20415;-59
2023/05/06 09:46:12;;;;;;;3.22;2.13;;;;;;;;;;5045535;28;20513;-58
2023/05/06 09:48:39;;;;;;;5.18;1.90;;;;;;;;;;5041007;28;20413;-59
2023/05/06 09:51:06;;;;;;;2.78;2.00;;;;;;;;;;5037731;28;20415;-59
2023/05/06 09:53:35;;;;;;;3.47;2.00;;;;;;;;;;5046101;28;20879;-61
2023/05/06 09:56:03;;;;;;;3.58;1.80;;;;;;;;;;5041411;28;20976;-60
2023/05/06 09:58:32;;;;;;;2.75;1.90;;;;;;;;;;5039216;28;20414;-60
2023/05/06 10:01:00;;;;;;;3.00;2.03;;;;;;;;;;5038847;28;20981;-60
2023/05/06 10:03:27;;;;;;;5.15;1.80;;;;;;;;;;5039678;28;20448;-60
2023/05/06 10:05:56;;;;;;;3.88;1.98;;;;;;;;;;5041227;28;20768;-60
2023/05/06 10:08:24;;;;;;;3.75;1.90;;;;;;;;;;5043840;28;20415;-59
2023/05/06 10:10:51;;;;;;;3.55;1.80;;;;;;;;;;5044600;28;20430;-60
2023/05/06 10:13:19;;;;;;;2.10;1.65;;;;;;;;;;5043852;28;20417;-60
2023/05/06 10:15:49;;;;;;;3.72;1.60;;;;;;;;;;5044755;28;20417;-60
2023/05/06 10:18:16;;;;;;;2.65;1.70;;;;;;;;;;5042585;28;20480;-59
2023/05/06 10:20:45;;;;;;;3.88;1.63;;;;;;;;;;5042570;28;20468;-60
2023/05/06 10:23:14;;;;;;;3.00;1.40;;;;;;;;;;5055271;28;20784;-58
2023/05/06 10:25:43;;;;;;;3.00;1.50;;;;;;;;;;5050165;28;20922;-58
2023/05/06 10:28:10;;;;;;;3.60;1.50;;;;;;;;;;5042136;28;20422;-58
2023/05/06 10:30:38;;;;;;;2.97;1.35;;;;;;;;;;5042796;28;20458;-59
2023/05/06 10:33:07;;;;;;;2.73;1.20;;;;;;;;;;5044424;28;20417;-60
2023/05/06 10:35:39;;;;;;;1.92;0.73;;;;;;;;;;5037804;28;20466;-59
2023/05/06 10:38:07;;;;;;;2.15;0.90;;;;;;;;;;5044617;28;20417;-59
2023/05/06 10:40:34;;;;;;;2.60;1.27;;;;;;;;;;5046157;28;20488;-60
2023/05/06 10:43:20;;;;;;;2.95;1.23;;;;;;;;;;5044684;28;20421;-62
2023/05/06 10:46:00;;;;;;;2.00;1.13;;;;;;;;;;5052796;28;20413;-62
2023/05/06 10:48:29;;;;;;;2.30;1.00;;;;;;;;;;5048380;28;20423;-62
2023/05/06 10:51:15;;;;;;;19.48;8.60;;;;;;;;;;5044113;28;20483;-64
2023/05/06 10:54:02;;;;;;;4.00;1.52;;;;;;;;;;5055101;28;20403;-64
2023/05/06 10:56:30;;;;;;;2.20;1.42;;;;;;;;;;5044963;28;20423;-66
2023/05/06 10:58:58;;;;;;;8.97;4.83;;;;;;;;;;5044182;28;20501;-64
2023/05/06 11:01:26;;;;;;;3.87;2.10;;;;;;;;;;5042897;28;20417;-64
2023/05/06 11:03:55;;;;;;;3.33;1.47;;;;;;;;;;5041444;28;20469;-63
2023/05/06 11:06:39;;;;;;;2.70;1.10;;;;;;;;;;5041851;28;20417;-63
2023/05/06 11:09:07;;;;;;;1.92;1.02;;;;;;;;;;5042882;28;20415;-63
2023/05/06 11:11:50;;;;;;;2.58;1.10;;;;;;;;;;5041835;28;20427;-62
2023/05/06 11:14:25;;;;;;;3.95;1.90;;;;;;;;;;5041262;28;20427;-62
2023/05/06 11:16:53;;;;;;;10.88;5.30;;;;;;;;;;5041188;28;20415;-62
2023/05/06 11:19:23;;;;;;;5.53;2.55;;;;;;;;;;5042421;28;20888;-63
2023/05/06 11:21:50;;;;;;;4.25;2.42;;;;;;;;;;5047265;28;20417;-63
2023/05/06 11:24:22;;;;;;;3.38;1.20;;;;;;;;;;5044371;28;20435;-63
2023/05/06 11:26:50;;;;;;;2.72;1.40;;;;;;;;;;5039173;28;20431;-63
2023/05/06 11:29:17;;;;;;;5.93;2.40;;;;;;;;;;5042913;28;20413;-62
2023/05/06 11:31:45;;;;;;;2.15;1.13;;;;;;;;;;5042190;28;20415;-63
2023/05/06 11:34:13;;;;;;;3.33;1.20;;;;;;;;;;5043997;28;20425;-62
2023/05/06 11:36:52;;;;;;;3.07;1.23;;;;;;;;;;5042005;28;20414;-62
2023/05/06 11:39:19;;;;;;;2.05;0.80;;;;;;;;;;5041159;28;20470;-63
2023/05/06 11:41:46;;;;;;;1.42;0.77;;;;;;;;;;5041091;28;20458;-63
2023/05/06 11:44:24;;;;;;;4.28;1.80;;;;;;;;;;5042932;28;20425;-62
2023/05/06 11:46:51;;;;;;;2.13;1.10;;;;;;;;;;5042793;28;21081;-63
2023/05/06 11:49:18;;;;;;;2.30;1.10;;;;;;;;;;5040817;28;20427;-64
2023/05/06 11:51:45;;;;;;;2.53;0.90;;;;;;;;;;5046634;28;20474;-63
2023/05/06 11:54:15;;;;;;;2.70;1.13;;;;;;;;;;5048187;28;20896;-63
2023/05/06 11:56:46;;;;;;;3.35;1.42;;;;;;;;;;5042595;28;20449;-63
2023/05/06 11:59:13;;;;;;;2.13;0.98;;;;;;;;;;5042752;28;20421;-63
2023/05/06 12:01:44;;;;;;;3.33;1.30;;;;;;;;;;5041601;28;20411;-63
2023/05/06 12:04:11;;;;;;;1.98;0.90;;;;;;;;;;5040285;28;20419;-63
2023/05/06 12:06:38;;;;;;;1.73;1.00;;;;;;;;;;5041125;28;20413;-63
2023/05/06 12:09:06;;;;;;;2.50;0.90;;;;;;;;;;5042615;28;20409;-63
2023/05/06 12:11:35;;;;;;;2.07;0.93;;;;;;;;;;5042477;28;20904;-63
2023/05/06 12:14:03;;;;;;;1.80;0.82;;;;;;;;;;5042225;28;20417;-62
2023/05/06 12:16:30;;;;;;;3.10;0.90;;;;;;;;;;5041841;28;20425;-62
2023/05/06 12:18:57;;;;;;;2.88;1.00;;;;;;;;;;5040676;28;20419;-62
2023/05/06 12:21:25;;;;;;;3.90;1.10;;;;;;;;;;5044244;28;20463;-63
2023/05/06 12:23:52;;;;;;;2.17;1.00;;;;;;;;;;5053019;28;20782;-62
2023/05/06 12:26:21;;;;;;;2.40;1.17;;;;;;;;;;5038951;28;20421;-61
2023/05/06 12:29:03;;;;;;;1.65;1.08;;;;;;;;;;5040110;28;20473;-63
2023/05/06 12:31:30;;;;;;;2.38;1.20;;;;;;;;;;5040290;28;20965;-64
2023/05/06 12:33:57;;;;;;;5.65;2.88;;;;;;;;;;5039643;28;20414;-65
2023/05/06 12:36:24;;;;;;;3.50;1.70;;;;;;;;;;5030506;28;20442;-65
2023/05/06 12:38:52;;;;;;;2.00;1.15;;;;;;;;;;5031098;28;20477;-64
2023/05/06 12:41:19;;;;;;;2.30;0.90;;;;;;;;;;5039031;28;20428;-64
2023/05/06 12:43:46;;;;;;;2.35;1.00;;;;;;;;;;5042457;28;20422;-63
2023/05/06 12:46:15;;;;;;;3.03;1.20;;;;;;;;;;5038690;28;20455;-64
2023/05/06 12:48:42;;;;;;;2.55;1.10;;;;;;;;;;5041067;28;20421;-64
2023/05/06 12:51:19;;;;;;;2.88;1.30;;;;;;;;;;5041618;28;20761;-63
2023/05/06 12:53:46;;;;;;;2.47;1.00;;;;;;;;;;5052983;28;20407;-66
2023/05/06 12:56:13;;;;;;;2.30;1.13;;;;;;;;;;5038109;28;20907;-63
2023/05/06 12:58:40;;;;;;;2.37;0.80;;;;;;;;;;5039498;28;21015;-63
2023/05/06 13:01:07;;;;;;;1.90;0.90;;;;;;;;;;5037734;28;21111;-64
2023/05/06 13:03:36;;;;;;;2.83;0.90;;;;;;;;;;5041716;28;20776;-65
2023/05/06 13:06:03;;;;;;;3.63;1.17;;;;;;;;;;5040521;28;20413;-64
2023/05/06 13:08:30;;;;;;;2.05;1.00;;;;;;;;;;5039259;28;20415;-64
2023/05/06 13:10:58;;;;;;;2.10;0.90;;;;;;;;;;5042702;28;20489;-64
2023/05/06 13:13:25;;;;;;;2.67;0.93;;;;;;;;;;5038957;28;20419;-64
2023/05/06 13:15:53;;;;;;;3.40;0.87;;;;;;;;;;5042397;28;20427;-64
2023/05/06 13:18:20;;;;;;;1.95;0.95;;;;;;;;;;5041221;28;20417;-62
2023/05/06 13:20:49;;;;;;;2.00;1.00;;;;;;;;;;5039256;28;20415;-63
2023/05/06 13:23:16;;;;;;;3.00;1.02;;;;;;;;;;5050456;28;20453;-63
2023/05/06 13:25:43;;;;;;;1.88;1.02;;;;;;;;;;5042540;28;21072;-64
2023/05/06 13:28:10;;;;;;;2.50;1.10;;;;;;;;;;5040179;28;20417;-65
2023/05/06 13:30:37;;;;;;;2.47;0.90;;;;;;;;;;5040991;28;20993;-64
2023/05/06 13:33:04;;;;;;;2.92;1.00;;;;;;;;;;5039086;28;20893;-63
2023/05/06 13:35:31;;;;;;;2.47;0.93;;;;;;;;;;5039166;28;20821;-64
2023/05/06 13:37:59;;;;;;;1.85;0.80;;;;;;;;;;5049022;28;20413;-62
2023/05/06 13:40:26;;;;;;;1.65;0.90;;;;;;;;;;5042827;28;20417;-63
2023/05/06 13:42:54;;;;;;;1.90;1.00;;;;;;;;;;5040849;28;20417;-63
2023/05/06 13:45:21;;;;;;;1.88;0.90;;;;;;;;;;5039167;28;20414;-63
2023/05/06 13:47:48;;;;;;;4.10;1.00;;;;;;;;;;5039053;28;20821;-64
2023/05/06 13:50:15;;;;;;;2.45;1.23;;;;;;;;;;5038844;28;20856;-64
2023/05/06 13:52:42;;;;;;;2.45;1.63;;;;;;;;;;5048526;28;20498;-64
2023/05/06 13:55:10;;;;;;;2.75;0.90;;;;;;;;;;5042016;28;20471;-64
2023/05/06 13:57:37;;;;;;;3.00;1.00;;;;;;;;;;5036841;28;20467;-64
2023/05/06 14:00:06;;;;;;;2.88;0.90;;;;;;;;;;5040733;28;20560;-64
2023/05/06 14:02:33;;;;;;;2.20;0.90;;;;;;;;;;5039072;28;20453;-64
2023/05/06 14:05:00;;;;;;;2.45;0.90;;;;;;;;;;5038540;28;20419;-64
2023/05/06 14:07:27;;;;;;;3.00;1.00;;;;;;;;;;5040469;28;20882;-63
2023/05/06 14:09:54;;;;;;;3.00;1.00;;;;;;;;;;5039711;28;20411;-63
2023/05/06 14:12:23;;;;;;;1.77;1.05;;;;;;;;;;5042068;28;20425;-64
2023/05/06 14:14:50;;;;;;;3.42;1.00;;;;;;;;;;5039102;28;20422;-64
2023/05/06 14:17:17;;;;;;;2.78;1.00;;;;;;;;;;5038263;28;20423;-64
2023/05/06 14:19:44;;;;;;;2.33;0.90;;;;;;;;;;5038828;28;20411;-64
2023/05/06 14:22:11;;;;;;;2.47;1.00;;;;;;;;;;5043518;28;20469;-64
2023/05/06 14:24:38;;;;;;;2.05;1.05;;;;;;;;;;5044836;28;20469;-64
2023/05/06 14:27:05;;;;;;;2.53;0.88;;;;;;;;;;5029258;28;20415;-63
2023/05/06 14:29:34;;;;;;;3.38;0.90;;;;;;;;;;5045722;28;20417;-64
2023/05/06 14:32:00;;;;;;;2.30;0.90;;;;;;;;;;5045767;28;20484;-64
2023/05/06 14:34:27;;;;;;;3.15;0.90;;;;;;;;;;5037282;28;20419;-63